Time;durP1;ratioP1;P1;durP2;ratioP2;P2;SDS_P1;SDS_P2;PMS_P1;PMS_P2;Temp;Humidity;BMP_temperature;BMP_pressure;BME280_temperature;BME280_humidity;BME280_pressure;Samples;Min_cycle;Max_cycle;Signal;HPM_P1;HPM_P2
2021/08/23 00:00:38;;;;;;;4.97;3.03;;;16.50;99.90;;;;;;5051110;28;20037;-71
2021/08/23 00:03:05;;;;;;;8.32;3.40;;;16.70;99.90;;;;;;5051165;28;20025;-71
2021/08/23 00:05:34;;;;;;;10.60;3.33;;;16.70;99.90;;;;;;5052358;28;20041;-70
2021/08/23 00:08:00;;;;;;;6.15;3.10;;;16.80;99.90;;;;;;5050779;28;20056;-71
2021/08/23 00:10:27;;;;;;;11.10;3.53;;;16.80;99.90;;;;;;5051173;28;20474;-70
2021/08/23 00:12:53;;;;;;;8.30;3.15;;;16.70;99.90;;;;;;5052256;28;20473;-70
2021/08/23 00:15:18;;;;;;;5.20;3.10;;;16.90;99.90;;;;;;5050857;28;20103;-70
2021/08/23 00:17:45;;;;;;;5.45;2.70;;;16.90;99.90;;;;;;5051679;28;20049;-70
2021/08/23 00:20:16;;;;;;;6.13;3.10;;;16.80;99.90;;;;;;5051922;28;20025;-70
2021/08/23 00:22:51;;;;;;;5.60;3.03;;;16.70;99.90;;;;;;5034652;28;20036;-70
2021/08/23 00:25:18;;;;;;;8.85;3.10;;;16.80;99.90;;;;;;5051997;28;20120;-70
2021/08/23 00:27:44;;;;;;;6.70;3.13;;;16.80;99.90;;;;;;5051687;28;20508;-70
2021/08/23 00:30:13;;;;;;;5.57;3.08;;;16.70;99.90;;;;;;5050656;28;20362;-71
2021/08/23 00:32:40;;;;;;;8.35;3.63;;;16.60;99.90;;;;;;5051975;28;20512;-70
2021/08/23 00:35:07;;;;;;;5.28;3.28;;;16.60;99.90;;;;;;5054822;28;20056;-70
2021/08/23 00:37:32;;;;;;;5.43;2.85;;;16.70;99.90;;;;;;5055861;28;20032;-70
2021/08/23 00:39:58;;;;;;;7.13;3.10;;;16.70;99.90;;;;;;5056129;28;20369;-71
2021/08/23 00:42:24;;;;;;;7.68;2.80;;;16.70;99.90;;;;;;5055894;28;20080;-70
2021/08/23 00:44:50;;;;;;;6.47;3.20;;;16.60;99.90;;;;;;5055551;28;20439;-70
2021/08/23 00:47:16;;;;;;;7.05;3.13;;;16.60;99.90;;;;;;5055510;28;20082;-70
2021/08/23 00:49:42;;;;;;;8.30;2.95;;;16.60;99.90;;;;;;5055828;28;20107;-70
2021/08/23 00:52:08;;;;;;;7.13;2.75;;;16.70;99.90;;;;;;5054309;28;20473;-70
2021/08/23 00:54:36;;;;;;;7.65;2.75;;;16.60;99.90;;;;;;5055632;28;20067;-70
2021/08/23 00:57:06;;;;;;;11.75;4.07;;;16.60;99.90;;;;;;5055422;28;20064;-70
2021/08/23 00:59:36;;;;;;;5.07;2.60;;;16.70;99.90;;;;;;5055606;28;20079;-70
2021/08/23 01:02:54;;;;;;;7.00;3.15;;;16.60;99.90;;;;;;5054481;28;20061;-70
2021/08/23 01:05:31;;;;;;;8.77;3.05;;;16.50;99.90;;;;;;5055720;28;20041;-70
2021/08/23 01:08:30;;;;;;;10.02;3.28;;;16.50;99.90;;;;;;5055275;28;20063;-70
2021/08/23 01:10:58;;;;;;;8.85;3.30;;;16.40;99.90;;;;;;5055608;28;20041;-70
2021/08/23 01:13:25;;;;;;;8.50;3.38;;;16.30;99.90;;;;;;5037938;28;20037;-70
2021/08/23 01:15:52;;;;;;;6.78;3.13;;;16.30;99.90;;;;;;5037355;28;20069;-70
2021/08/23 01:18:18;;;;;;;7.28;3.10;;;16.20;99.90;;;;;;5053825;28;20116;-70
2021/08/23 01:20:45;;;;;;;7.43;4.07;;;16.20;99.90;;;;;;5055421;28;20115;-70
2021/08/23 01:23:12;;;;;;;8.07;3.65;;;16.20;99.90;;;;;;5054062;28;20576;-71
2021/08/23 01:25:40;;;;;;;5.55;3.20;;;16.30;99.90;;;;;;5053842;28;20029;-71
2021/08/23 01:28:33;;;;;;;6.65;3.15;;;16.20;99.90;;;;;;5053929;28;20377;-70
2021/08/23 01:31:14;;;;;;;10.20;2.95;;;16.30;99.90;;;;;;5054859;28;20500;-70
2021/08/23 01:33:42;;;;;;;6.18;3.70;;;16.10;99.90;;;;;;5054712;28;20158;-70
2021/08/23 01:36:09;;;;;;;7.15;3.30;;;16.10;99.90;;;;;;5053831;28;20832;-70
2021/08/23 01:38:35;;;;;;;9.88;4.07;;;16.00;99.90;;;;;;5054825;28;20108;-70
2021/08/23 01:41:04;;;;;;;7.80;3.25;;;16.00;99.90;;;;;;5054626;28;20068;-70
2021/08/23 01:43:30;;;;;;;9.30;4.25;;;16.00;99.90;;;;;;5055097;28;20056;-70
2021/08/23 01:45:56;;;;;;;9.82;4.68;;;16.00;99.90;;;;;;5054075;28;20075;-70
2021/08/23 01:48:22;;;;;;;12.07;4.30;;;15.90;99.90;;;;;;5053195;28;20021;-71
2021/08/23 01:50:48;;;;;;;7.57;3.88;;;15.90;99.90;;;;;;5052926;28;20393;-70
2021/08/23 01:53:16;;;;;;;7.13;3.78;;;15.90;99.90;;;;;;5054375;28;20120;-70
2021/08/23 01:55:45;;;;;;;8.85;4.00;;;15.90;99.90;;;;;;5053147;28;20086;-70
2021/08/23 01:58:11;;;;;;;6.57;4.00;;;15.90;99.90;;;;;;5053417;28;20025;-72
2021/08/23 02:00:37;;;;;;;8.65;3.63;;;16.00;99.90;;;;;;5054467;28;20070;-70
2021/08/23 02:03:04;;;;;;;7.45;3.30;;;16.00;99.90;;;;;;5053010;28;20037;-70
2021/08/23 02:05:30;;;;;;;6.60;3.03;;;16.10;99.90;;;;;;5054261;28;20043;-70
2021/08/23 02:07:57;;;;;;;10.23;3.17;;;16.30;99.90;;;;;;5052784;28;20037;-70
2021/08/23 02:10:25;;;;;;;8.70;3.05;;;16.30;99.90;;;;;;5054158;28;20029;-70
2021/08/23 02:12:50;;;;;;;6.72;3.35;;;16.30;99.90;;;;;;5052973;28;20040;-70
2021/08/23 02:15:16;;;;;;;6.72;3.45;;;16.20;99.90;;;;;;5054105;28;20032;-70
2021/08/23 02:17:42;;;;;;;9.57;3.50;;;16.20;99.90;;;;;;5053775;28;20049;-70
2021/08/23 02:20:11;;;;;;;9.07;3.97;;;16.10;99.90;;;;;;5053956;28;20488;-71
2021/08/23 02:22:40;;;;;;;5.32;3.17;;;16.10;99.90;;;;;;5052834;28;20041;-71
2021/08/23 02:25:07;;;;;;;7.55;3.10;;;16.10;99.90;;;;;;5053826;28;20028;-70
2021/08/23 02:27:33;;;;;;;8.20;3.47;;;16.20;99.90;;;;;;5053790;28;20044;-70
2021/08/23 02:29:59;;;;;;;7.35;3.53;;;16.30;99.90;;;;;;5036071;28;20029;-70
2021/08/23 02:32:25;;;;;;;8.10;3.10;;;16.30;99.90;;;;;;5053736;28;20036;-70
2021/08/23 02:34:51;;;;;;;4.70;2.88;;;16.30;99.90;;;;;;5052540;28;20479;-70
2021/08/23 02:37:17;;;;;;;7.65;3.05;;;16.40;99.90;;;;;;5052323;28;20075;-70
2021/08/23 02:39:43;;;;;;;6.32;3.47;;;16.40;99.90;;;;;;5053330;28;20029;-70
2021/08/23 02:42:09;;;;;;;5.85;2.80;;;16.40;99.90;;;;;;5053558;28;20043;-70
2021/08/23 02:44:35;;;;;;;6.13;3.25;;;16.50;99.90;;;;;;5052506;28;20061;-70
2021/08/23 02:47:00;;;;;;;8.35;3.40;;;16.50;99.90;;;;;;5053435;28;20425;-70
2021/08/23 02:49:26;;;;;;;6.28;3.08;;;16.60;99.90;;;;;;5053292;28;20116;-71
2021/08/23 02:51:53;;;;;;;7.72;3.53;;;16.50;99.90;;;;;;5053097;28;20053;-71
2021/08/23 02:54:20;;;;;;;8.82;3.47;;;16.40;99.90;;;;;;5052034;28;20071;-70
2021/08/23 02:56:46;;;;;;;7.80;3.53;;;16.30;99.90;;;;;;5051100;28;20029;-71
2021/08/23 02:59:12;;;;;;;11.13;3.90;;;16.20;99.90;;;;;;5053420;28;20083;-70
2021/08/23 03:01:38;;;;;;;7.40;4.55;;;16.10;99.90;;;;;;5051930;28;20032;-70
2021/08/23 03:04:03;;;;;;;6.57;3.83;;;16.00;99.90;;;;;;5053100;28;20078;-70
2021/08/23 03:06:30;;;;;;;8.30;4.78;;;16.00;99.90;;;;;;5053098;28;20033;-70
2021/08/23 03:08:55;;;;;;;11.25;4.35;;;16.00;99.90;;;;;;5051889;28;20036;-71
2021/08/23 03:11:21;;;;;;;12.48;5.28;;;16.00;99.90;;;;;;5051945;28;20029;-71
2021/08/23 03:13:47;;;;;;;10.02;4.55;;;16.00;99.90;;;;;;5052734;28;20033;-71
2021/08/23 03:16:13;;;;;;;9.68;4.20;;;16.00;99.90;;;;;;5051949;28;20075;-71
2021/08/23 03:18:39;;;;;;;9.75;4.88;;;16.00;99.90;;;;;;5051424;28;20405;-71
2021/08/23 03:21:05;;;;;;;8.43;5.03;;;16.00;99.90;;;;;;5053027;28;20043;-71
2021/08/23 03:23:31;;;;;;;9.68;5.45;;;16.00;99.90;;;;;;5053071;28;20031;-70
2021/08/23 03:26:03;;;;;;;8.70;4.22;;;16.10;99.90;;;;;;5051346;28;20158;-71
2021/08/23 03:28:29;;;;;;;9.30;4.60;;;16.10;99.90;;;;;;5052645;28;20036;-71
2021/08/23 03:30:55;;;;;;;11.73;4.80;;;16.10;99.90;;;;;;5052430;28;20083;-70
2021/08/23 03:33:21;;;;;;;16.83;5.03;;;16.10;99.90;;;;;;5052679;28;20036;-71
2021/08/23 03:35:46;;;;;;;13.48;5.40;;;16.10;99.90;;;;;;5051161;28;20037;-70
2021/08/23 03:38:12;;;;;;;9.93;5.60;;;16.10;99.90;;;;;;5051287;28;20017;-70
2021/08/23 03:40:39;;;;;;;8.27;5.65;;;16.10;99.90;;;;;;5029307;28;20039;-71
2021/08/23 03:43:05;;;;;;;11.43;5.72;;;16.10;99.90;;;;;;5031200;28;20021;-71
2021/08/23 03:45:31;;;;;;;15.80;6.30;;;16.00;99.90;;;;;;5031554;28;20041;-69
2021/08/23 03:47:57;;;;;;;10.32;5.30;;;16.00;99.90;;;;;;5035179;28;20068;-70
2021/08/23 03:50:22;;;;;;;12.98;5.05;;;16.00;99.90;;;;;;5050992;28;20044;-69
2021/08/23 03:52:54;;;;;;;11.35;5.50;;;16.00;99.90;;;;;;5051028;28;20073;-69
2021/08/23 03:55:22;;;;;;;9.57;4.90;;;16.00;99.90;;;;;;5051300;28;20085;-69
2021/08/23 03:57:48;;;;;;;8.75;5.00;;;16.00;99.90;;;;;;5050107;28;20573;-72
2021/08/23 04:00:14;;;;;;;9.85;5.05;;;16.00;99.90;;;;;;5052274;28;20123;-71
2021/08/23 04:02:39;;;;;;;7.68;4.90;;;16.00;99.90;;;;;;5052097;28;20112;-72
2021/08/23 04:05:06;;;;;;;11.35;4.88;;;16.00;99.90;;;;;;5052215;28;20252;-73
2021/08/23 04:07:33;;;;;;;10.63;4.97;;;16.00;99.90;;;;;;5052106;28;20494;-72
2021/08/23 04:09:58;;;;;;;9.20;5.72;;;16.00;99.90;;;;;;5049737;28;20493;-70
2021/08/23 04:12:24;;;;;;;12.40;5.22;;;16.00;99.90;;;;;;5035722;28;20041;-69
2021/08/23 04:14:50;;;;;;;11.40;5.25;;;16.00;99.90;;;;;;5032087;28;20119;-70
2021/08/23 04:17:16;;;;;;;10.50;5.40;;;16.00;99.90;;;;;;5031834;28;20563;-71
2021/08/23 04:19:42;;;;;;;9.10;4.45;;;16.00;99.90;;;;;;5031892;28;20075;-68
2021/08/23 04:22:11;;;;;;;8.85;5.30;;;16.00;99.90;;;;;;5032128;28;20112;-69
2021/08/23 04:24:38;;;;;;;11.00;5.25;;;16.00;99.90;;;;;;5031996;28;20037;-69
2021/08/23 04:27:04;;;;;;;10.75;4.85;;;16.00;99.90;;;;;;5031781;28;20053;-69
2021/08/23 04:29:30;;;;;;;10.18;5.32;;;16.00;99.90;;;;;;5032120;28;20033;-70
2021/08/23 04:31:56;;;;;;;12.30;6.25;;;16.00;99.90;;;;;;5031851;28;20041;-71
2021/08/23 04:34:22;;;;;;;13.73;5.47;;;16.10;99.90;;;;;;5014446;28;20072;-71
2021/08/23 04:36:47;;;;;;;12.18;5.50;;;16.20;99.90;;;;;;5031947;28;20034;-70
2021/08/23 04:39:13;;;;;;;9.63;5.68;;;16.10;99.90;;;;;;5031932;28;20057;-70
2021/08/23 04:41:42;;;;;;;9.13;4.93;;;16.10;99.90;;;;;;5041838;28;20041;-70
2021/08/23 04:44:09;;;;;;;10.23;5.20;;;16.10;99.90;;;;;;5051935;28;20029;-70
2021/08/23 04:46:37;;;;;;;11.88;5.50;;;16.20;99.90;;;;;;5051741;28;20087;-70
2021/08/23 04:49:04;;;;;;;7.78;4.57;;;16.20;99.90;;;;;;5051808;28;20428;-71
2021/08/23 04:51:30;;;;;;;8.90;5.00;;;16.20;99.90;;;;;;5051623;28;20037;-70
2021/08/23 04:53:56;;;;;;;8.55;5.20;;;16.10;99.90;;;;;;5051799;28;20037;-70
2021/08/23 04:56:22;;;;;;;9.07;5.10;;;16.10;99.90;;;;;;5050271;28;20370;-70
2021/08/23 04:58:48;;;;;;;8.80;5.70;;;16.10;99.90;;;;;;5051845;28;20082;-69
2021/08/23 05:01:14;;;;;;;11.40;5.22;;;16.10;99.90;;;;;;5051592;28;20097;-69
2021/08/23 05:03:40;;;;;;;10.80;5.97;;;16.10;99.90;;;;;;5050270;28;20029;-72
2021/08/23 05:06:06;;;;;;;8.15;4.95;;;16.10;99.90;;;;;;5051636;28;20044;-71
2021/08/23 05:08:32;;;;;;;13.75;5.32;;;16.10;99.90;;;;;;5051518;28;20730;-66
2021/08/23 05:10:58;;;;;;;12.48;6.20;;;16.10;99.90;;;;;;5047124;28;20039;-67
2021/08/23 05:13:23;;;;;;;9.50;5.03;;;16.20;99.90;;;;;;5030336;28;20025;-67
2021/08/23 05:15:49;;;;;;;12.18;5.10;;;16.30;99.90;;;;;;5031204;28;20036;-67
2021/08/23 05:18:15;;;;;;;7.95;5.43;;;16.20;99.90;;;;;;5030331;28;20053;-67
2021/08/23 05:20:41;;;;;;;11.95;5.72;;;16.20;99.90;;;;;;5033787;28;20108;-65
2021/08/23 05:23:10;;;;;;;9.48;5.35;;;16.20;99.90;;;;;;5034589;28;20508;-65
2021/08/23 05:25:37;;;;;;;9.75;5.50;;;16.30;99.90;;;;;;5032367;28;20045;-66
2021/08/23 05:28:06;;;;;;;8.63;5.68;;;16.30;99.90;;;;;;5033151;28;20029;-63
2021/08/23 05:30:32;;;;;;;10.25;5.30;;;16.30;99.90;;;;;;5025844;28;20038;-63
2021/08/23 05:32:59;;;;;;;7.95;5.30;;;16.30;99.90;;;;;;5030411;28;20032;-63
2021/08/23 05:35:25;;;;;;;10.95;5.68;;;16.40;99.90;;;;;;5043018;28;20110;-63
2021/08/23 05:37:51;;;;;;;10.63;5.70;;;16.40;99.90;;;;;;5054473;28;20440;-63
2021/08/23 05:40:19;;;;;;;9.25;5.35;;;16.40;99.90;;;;;;5054530;28;20033;-63
2021/08/23 05:42:45;;;;;;;10.23;5.18;;;16.60;99.90;;;;;;5053426;28;20477;-63
2021/08/23 05:45:11;;;;;;;10.90;5.30;;;16.50;99.90;;;;;;5054133;28;20082;-63
2021/08/23 05:47:37;;;;;;;9.45;5.28;;;16.50;99.90;;;;;;5053127;28;20025;-63
2021/08/23 05:50:05;;;;;;;9.30;5.32;;;16.60;99.90;;;;;;5053417;28;20036;-63
2021/08/23 05:52:31;;;;;;;10.95;5.55;;;16.50;99.90;;;;;;5052735;28;20496;-63
2021/08/23 05:54:57;;;;;;;12.35;7.43;;;16.60;99.90;;;;;;5048185;28;20033;-63
2021/08/23 05:57:25;;;;;;;11.82;5.90;;;16.60;99.90;;;;;;5033678;28;20029;-63
2021/08/23 05:59:50;;;;;;;7.80;5.22;;;16.60;99.90;;;;;;5034196;28;20064;-63
2021/08/23 06:02:16;;;;;;;12.50;5.70;;;16.60;99.90;;;;;;5032872;28;20114;-63
2021/08/23 06:04:42;;;;;;;11.88;5.88;;;16.70;99.90;;;;;;5034157;28;20033;-64
2021/08/23 06:07:08;;;;;;;10.63;5.10;;;16.70;99.90;;;;;;5034177;28;20099;-63
2021/08/23 06:09:34;;;;;;;9.45;5.25;;;16.70;99.90;;;;;;5032844;28;20034;-63
2021/08/23 06:12:00;;;;;;;10.40;6.05;;;16.70;99.90;;;;;;5034063;28;20095;-63
2021/08/23 06:14:26;;;;;;;11.85;5.82;;;16.80;99.90;;;;;;5032649;28;20021;-63
2021/08/23 06:16:52;;;;;;;10.73;5.70;;;16.80;99.90;;;;;;5033635;28;20117;-63
2021/08/23 06:19:17;;;;;;;10.02;5.55;;;16.80;99.90;;;;;;5033808;28;20040;-63
2021/08/23 06:21:43;;;;;;;9.10;5.18;;;16.90;99.90;;;;;;5032553;28;20033;-63
2021/08/23 06:24:09;;;;;;;9.00;5.07;;;16.90;99.90;;;;;;5034071;28;20065;-62
2021/08/23 06:26:35;;;;;;;9.35;5.18;;;16.90;99.90;;;;;;5033663;28;20048;-63
2021/08/23 06:29:01;;;;;;;11.80;5.88;;;17.00;99.90;;;;;;5033930;28;20022;-63
2021/08/23 06:31:26;;;;;;;10.35;5.78;;;17.00;99.90;;;;;;5031388;28;20044;-63
2021/08/23 06:33:52;;;;;;;10.32;5.47;;;17.00;99.90;;;;;;5033531;28;20103;-62
2021/08/23 06:36:18;;;;;;;10.02;4.80;;;17.10;99.90;;;;;;5033885;28;20033;-63
2021/08/23 06:38:44;;;;;;;8.35;5.22;;;17.10;99.90;;;;;;5032534;28;20029;-63
2021/08/23 06:41:18;;;;;;;10.52;4.90;;;17.30;99.90;;;;;;5033066;28;20128;-63
2021/08/23 06:43:44;;;;;;;8.52;4.82;;;17.40;99.90;;;;;;5032175;28;20022;-63
2021/08/23 06:46:10;;;;;;;8.52;4.47;;;17.40;99.90;;;;;;5032155;28;20037;-62
2021/08/23 06:48:36;;;;;;;12.07;4.72;;;17.60;99.90;;;;;;5033593;28;20041;-63
2021/08/23 06:51:02;;;;;;;13.60;4.47;;;17.80;99.90;;;;;;5033280;28;20048;-63
2021/08/23 06:53:27;;;;;;;12.25;5.32;;;17.80;99.90;;;;;;5033467;28;20040;-64
2021/08/23 06:55:53;;;;;;;9.23;4.80;;;17.80;99.90;;;;;;5033010;28;20038;-63
2021/08/23 06:58:19;;;;;;;9.77;4.38;;;17.90;99.90;;;;;;5031954;28;20474;-63
2021/08/23 07:00:45;;;;;;;9.50;4.95;;;18.10;99.90;;;;;;5015307;28;20037;-63
2021/08/23 07:03:11;;;;;;;6.45;4.35;;;18.20;99.90;;;;;;5033210;28;20029;-62
2021/08/23 07:05:37;;;;;;;8.18;4.60;;;18.20;99.90;;;;;;5033214;28;20471;-62
2021/08/23 07:08:03;;;;;;;10.80;4.50;;;18.30;99.90;;;;;;5033097;28;20029;-63
2021/08/23 07:10:28;;;;;;;9.27;4.95;;;18.20;99.90;;;;;;5033307;28;20084;-62
2021/08/23 07:12:54;;;;;;;11.38;5.05;;;18.20;99.90;;;;;;5032753;28;20025;-63
2021/08/23 07:15:20;;;;;;;11.90;4.88;;;18.40;99.90;;;;;;5032953;28;20036;-63
2021/08/23 07:17:46;;;;;;;9.85;4.63;;;18.40;99.90;;;;;;5032714;28;20461;-63
2021/08/23 07:20:12;;;;;;;8.00;4.75;;;18.20;99.90;;;;;;5031488;28;20034;-63
2021/08/23 07:22:38;;;;;;;8.27;5.13;;;18.30;99.90;;;;;;5032905;28;20108;-63
2021/08/23 07:25:05;;;;;;;8.35;4.72;;;18.30;99.90;;;;;;5032404;28;20129;-63
2021/08/23 07:27:32;;;;;;;8.80;4.90;;;18.40;99.90;;;;;;5031533;28;20021;-63
2021/08/23 07:29:59;;;;;;;14.35;4.85;;;18.50;99.90;;;;;;5032409;28;20067;-63
2021/08/23 07:32:25;;;;;;;9.20;5.47;;;18.60;99.90;;;;;;5031601;28;20040;-63
2021/08/23 07:34:51;;;;;;;10.02;5.60;;;18.50;99.90;;;;;;5032678;28;20029;-63
2021/08/23 07:37:17;;;;;;;10.75;4.85;;;18.50;99.90;;;;;;5031276;28;20112;-63
2021/08/23 07:39:45;;;;;;;9.13;5.65;;;18.30;99.90;;;;;;5032496;28;20382;-63
2021/08/23 07:42:12;;;;;;;9.77;4.80;;;18.50;99.90;;;;;;5031778;28;20068;-63
2021/08/23 07:44:39;;;;;;;17.88;7.03;;;18.40;99.90;;;;;;5030895;28;20099;-63
2021/08/23 07:47:05;;;;;;;11.80;5.57;;;18.40;99.90;;;;;;5032365;28;20128;-65
2021/08/23 07:49:34;;;;;;;9.27;5.50;;;18.40;99.90;;;;;;5032106;28;20029;-65
2021/08/23 07:52:01;;;;;;;9.75;5.03;;;18.40;99.90;;;;;;5032430;28;20041;-66
2021/08/23 07:54:27;;;;;;;9.93;5.90;;;18.40;99.90;;;;;;5032064;28;20454;-65
2021/08/23 07:56:52;;;;;;;9.27;4.63;;;18.70;99.90;;;;;;5032409;28;20125;-64
2021/08/23 07:59:19;;;;;;;6.60;4.18;;;18.80;99.90;;;;;;5041143;28;20465;-66
2021/08/23 08:01:45;;;;;;;9.00;4.00;;;18.70;99.90;;;;;;5050953;28;20489;-66
2021/08/23 08:04:12;;;;;;;5.68;3.92;;;19.00;99.90;;;;;;5050910;28;20033;-67
2021/08/23 08:06:38;;;;;;;8.70;3.78;;;19.10;99.90;;;;;;5051966;28;20039;-67
2021/08/23 08:09:04;;;;;;;10.30;4.00;;;19.20;99.90;;;;;;5051918;28;20021;-67
2021/08/23 08:11:30;;;;;;;7.75;3.65;;;19.30;99.90;;;;;;5051919;28;20041;-67
2021/08/23 08:13:55;;;;;;;6.57;3.80;;;19.00;99.90;;;;;;5034077;28;20382;-67
2021/08/23 08:16:21;;;;;;;7.88;4.30;;;19.20;99.90;;;;;;5051742;28;20033;-68
2021/08/23 08:18:47;;;;;;;8.07;3.70;;;19.30;99.90;;;;;;5052198;28;20116;-67
2021/08/23 08:21:13;;;;;;;6.18;3.85;;;19.00;99.90;;;;;;5050916;28;20032;-68
2021/08/23 08:23:39;;;;;;;7.80;3.30;;;18.90;99.90;;;;;;5033975;28;20025;-68
2021/08/23 08:26:05;;;;;;;9.77;3.45;;;18.90;99.90;;;;;;5051937;28;20036;-68
2021/08/23 08:28:32;;;;;;;5.22;3.22;;;19.10;99.90;;;;;;5051624;28;20358;-67
2021/08/23 08:30:59;;;;;;;6.75;3.30;;;19.30;99.90;;;;;;5050665;28;20033;-67
2021/08/23 08:33:25;;;;;;;6.00;3.65;;;19.40;99.90;;;;;;5051799;28;20025;-67
2021/08/23 08:35:57;;;;;;;7.53;3.65;;;19.40;99.90;;;;;;5051962;28;20033;-68
2021/08/23 08:38:24;;;;;;;5.68;3.28;;;19.30;99.90;;;;;;5051653;28;20028;-67
2021/08/23 08:40:51;;;;;;;7.63;3.83;;;19.10;99.90;;;;;;5050402;28;20035;-68
2021/08/23 08:43:17;;;;;;;6.20;3.40;;;19.00;99.90;;;;;;5050375;28;20108;-68
2021/08/23 08:45:44;;;;;;;5.72;3.60;;;19.00;99.90;;;;;;5050249;28;20124;-67
2021/08/23 08:48:10;;;;;;;8.20;3.47;;;19.00;99.90;;;;;;5051739;28;20443;-67
2021/08/23 08:50:36;;;;;;;6.35;3.63;;;19.10;99.90;;;;;;5042733;28;20025;-67
2021/08/23 08:53:06;;;;;;;8.02;4.00;;;19.30;99.90;;;;;;5030627;28;20033;-67
2021/08/23 08:55:36;;;;;;;6.28;3.35;;;19.10;99.90;;;;;;5033764;28;20037;-67
2021/08/23 08:58:06;;;;;;;8.20;3.40;;;19.40;99.90;;;;;;5046096;28;20420;-66
2021/08/23 09:00:38;;;;;;;8.32;3.45;;;19.50;99.90;;;;;;5054173;28;20122;-68
2021/08/23 09:03:05;;;;;;;5.63;3.40;;;19.60;99.90;;;;;;5055531;28;20179;-68
2021/08/23 09:05:43;;;;;;;8.25;4.80;;;19.30;99.90;;;;;;5055564;28;20036;-68
2021/08/23 09:08:09;;;;;;;4.93;3.35;;;19.30;99.90;;;;;;5055051;28;20035;-67
2021/08/23 09:10:42;;;;;;;4.95;3.40;;;19.40;99.90;;;;;;5054213;28;20067;-67
2021/08/23 09:13:11;;;;;;;8.88;3.42;;;19.30;99.90;;;;;;5055093;28;20033;-67
2021/08/23 09:15:50;;;;;;;6.63;3.53;;;19.50;99.90;;;;;;5055166;28;20036;-68
2021/08/23 09:18:24;;;;;;;5.47;3.20;;;19.50;99.90;;;;;;5053817;28;20079;-68
2021/08/23 09:21:01;;;;;;;6.45;2.85;;;19.90;99.90;;;;;;5054907;28;20532;-68
2021/08/23 09:23:47;;;;;;;6.10;3.25;;;20.20;99.90;;;;;;5055347;28;20087;-68
2021/08/23 09:26:17;;;;;;;4.50;2.72;;;20.20;99.90;;;;;;5053590;28;20521;-66
2021/08/23 09:29:04;;;;;;;7.53;3.60;;;20.10;99.90;;;;;;5053578;28;20025;-67
2021/08/23 09:31:37;;;;;;;7.18;3.50;;;20.20;99.90;;;;;;5054969;28;20047;-67
2021/08/23 09:34:14;;;;;;;5.80;3.40;;;20.10;99.90;;;;;;5053052;28;20040;-67
2021/08/23 09:36:40;;;;;;;5.85;3.15;;;19.90;99.90;;;;;;5037376;28;20049;-67
2021/08/23 09:39:17;;;;;;;5.03;3.33;;;19.80;99.90;;;;;;5054599;28;20447;-67
2021/08/23 09:41:43;;;;;;;6.88;3.58;;;20.20;99.90;;;;;;5053202;28;20033;-67
2021/08/23 09:44:14;;;;;;;5.13;2.83;;;20.30;99.90;;;;;;5054273;28;20099;-68
2021/08/23 09:46:43;;;;;;;6.28;3.20;;;20.40;99.90;;;;;;5053025;28;20045;-68
2021/08/23 09:49:13;;;;;;;4.70;2.90;;;20.20;99.90;;;;;;5054495;28;20120;-67
2021/08/23 09:51:43;;;;;;;6.45;3.67;;;20.30;99.90;;;;;;5053424;28;20029;-67
2021/08/23 09:54:11;;;;;;;7.35;3.58;;;20.00;99.90;;;;;;5053106;28;20025;-67
2021/08/23 09:56:55;;;;;;;7.32;3.53;;;20.10;99.90;;;;;;5054359;28;20075;-67
2021/08/23 09:59:29;;;;;;;6.60;2.80;;;20.30;99.90;;;;;;5054327;28;20037;-67
2021/08/23 10:01:58;;;;;;;6.63;3.58;;;20.60;99.90;;;;;;5054200;28;20385;-67
2021/08/23 10:04:26;;;;;;;5.32;2.90;;;20.30;99.90;;;;;;5050894;28;20678;-67
2021/08/23 10:06:53;;;;;;;5.10;3.00;;;20.80;99.90;;;;;;5052711;28;20037;-68
2021/08/23 10:09:24;;;;;;;4.53;2.75;;;21.00;99.90;;;;;;5054080;28;20086;-67
2021/08/23 10:11:53;;;;;;;4.38;2.53;;;21.30;99.90;;;;;;5054294;28;20033;-67
2021/08/23 10:14:19;;;;;;;7.47;2.70;;;21.50;99.90;;;;;;5054117;28;20473;-67
2021/08/23 10:16:46;;;;;;;8.02;2.80;;;21.70;99.90;;;;;;5052411;28;20061;-67
2021/08/23 10:19:13;;;;;;;7.03;2.80;;;21.70;99.90;;;;;;5052867;28;20040;-67
2021/08/23 10:21:48;;;;;;;6.45;2.95;;;21.70;99.90;;;;;;5053928;28;20022;-67
2021/08/23 10:24:28;;;;;;;6.50;3.13;;;21.20;99.90;;;;;;5053629;28;20032;-67
2021/08/23 10:26:56;;;;;;;3.17;2.38;;;21.20;99.90;;;;;;5053406;28;20079;-69
2021/08/23 10:29:22;;;;;;;4.85;2.83;;;21.10;99.90;;;;;;5052381;28;20029;-67
2021/08/23 10:31:48;;;;;;;6.57;2.70;;;21.00;99.90;;;;;;5053525;28;20044;-69
2021/08/23 10:34:17;;;;;;;7.63;2.90;;;21.60;99.90;;;;;;5053776;28;20058;-68
2021/08/23 10:36:47;;;;;;;4.85;2.83;;;22.20;99.90;;;;;;5052494;28;20029;-68
2021/08/23 10:39:22;;;;;;;4.63;2.93;;;22.50;99.90;;;;;;5053764;28;20397;-68
2021/08/23 10:41:50;;;;;;;6.07;2.38;;;22.70;99.90;;;;;;5053073;28;20056;-68
2021/08/23 10:44:33;;;;;;;6.07;2.90;;;22.90;99.90;;;;;;5053498;28;20127;-69
2021/08/23 10:47:11;;;;;;;7.97;3.38;;;21.80;99.90;;;;;;5053542;28;20350;-70
2021/08/23 10:49:47;;;;;;;6.22;3.10;;;21.40;99.90;;;;;;5053314;28;20033;-71
2021/08/23 10:52:28;;;;;;;6.30;3.30;;;22.30;99.90;;;;;;5051821;28;20115;-70
2021/08/23 10:54:54;;;;;;;4.85;2.80;;;22.50;99.90;;;;;;5053465;28;20063;-69
2021/08/23 10:57:22;;;;;;;7.10;3.50;;;22.70;99.90;;;;;;5053247;28;20549;-69
2021/08/23 10:59:53;;;;;;;8.32;3.00;;;22.50;99.90;;;;;;5053014;28;20520;-69
2021/08/23 11:02:29;;;;;;;;;;;22.50;99.90;;;;;;5053667;28;20175;-67
2021/08/23 11:05:09;;;;;;;5.07;2.80;;;22.50;99.90;;;;;;5053074;28;19917;-67
2021/08/23 11:07:39;;;;;;;7.13;3.13;;;22.30;99.90;;;;;;5053085;28;20147;-68
2021/08/23 11:10:13;;;;;;;6.00;3.42;;;22.80;99.90;;;;;;5053096;28;20033;-68
2021/08/23 11:12:48;;;;;;;4.57;2.88;;;22.90;99.90;;;;;;5051614;28;20039;-68
2021/08/23 11:15:30;;;;;;;6.45;3.50;;;22.80;99.90;;;;;;5068229;28;20068;-68
2021/08/23 11:18:05;;;;;;;5.75;3.33;;;22.50;99.90;;;;;;5050656;28;20525;-68
2021/08/23 11:20:36;;;;;;;4.80;3.28;;;23.00;99.90;;;;;;5051451;28;20037;-69
2021/08/23 11:23:04;;;;;;;5.95;3.53;;;23.10;99.90;;;;;;5052906;28;20497;-68
2021/08/23 11:25:36;;;;;;;7.22;3.20;;;23.20;99.90;;;;;;5052386;28;20037;-68
2021/08/23 11:28:15;;;;;;;5.35;3.50;;;23.30;99.90;;;;;;5052311;28;20512;-68
2021/08/23 11:30:50;;;;;;;7.85;3.20;;;23.40;99.90;;;;;;5051558;28;20071;-69
2021/08/23 11:33:31;;;;;;;5.00;2.97;;;23.50;99.90;;;;;;5051499;28;20029;-68
2021/08/23 11:36:03;;;;;;;5.78;3.60;;;23.20;99.90;;;;;;5052216;28;20493;-68
2021/08/23 11:38:35;;;;;;;8.98;3.70;;;23.60;99.90;;;;;;5051348;28;20033;-68
2021/08/23 11:41:03;;;;;;;6.45;3.30;;;24.00;99.90;;;;;;5051980;28;20025;-68
2021/08/23 11:43:32;;;;;;;7.63;3.45;;;23.90;99.90;;;;;;5052289;28;20052;-68
2021/08/23 11:46:00;;;;;;;8.07;3.40;;;23.60;99.90;;;;;;5050894;28;20473;-68
2021/08/23 11:48:31;;;;;;;7.18;4.32;;;23.50;99.90;;;;;;5052371;28;20041;-68
2021/08/23 11:50:58;;;;;;;10.40;4.53;;;23.30;99.90;;;;;;5051132;28;20111;-68
2021/08/23 11:53:27;;;;;;;8.23;4.10;;;23.10;99.90;;;;;;5051894;28;20032;-68
2021/08/23 11:56:07;;;;;;;7.70;3.47;;;22.70;99.90;;;;;;5052138;28;20415;-68
2021/08/23 11:58:40;;;;;;;6.85;3.22;;;23.10;99.90;;;;;;5052515;28;20065;-68
2021/08/23 12:01:09;;;;;;;9.48;4.00;;;23.10;99.90;;;;;;5050843;28;20673;-68
2021/08/23 12:03:37;;;;;;;9.32;3.58;;;23.50;99.90;;;;;;5050630;28;20029;-68
2021/08/23 12:06:31;;;;;;;6.60;3.30;;;23.60;99.90;;;;;;5052156;28;20500;-69
2021/08/23 12:09:00;;;;;;;5.85;3.70;;;23.80;99.90;;;;;;5047842;28;20043;-68
2021/08/23 12:11:26;;;;;;;6.13;3.97;;;24.10;99.90;;;;;;5041761;28;20037;-68
2021/08/23 12:13:52;;;;;;;8.27;3.80;;;24.40;99.90;;;;;;5017081;28;20026;-68
2021/08/23 12:16:35;;;;;;;6.40;3.60;;;24.70;99.90;;;;;;5012216;28;20037;-68
2021/08/23 12:19:10;;;;;;;5.97;3.40;;;24.70;99.90;;;;;;5012442;28;20168;-69
2021/08/23 12:21:37;;;;;;;5.47;3.50;;;24.80;99.90;;;;;;5012443;28;20030;-68
2021/08/23 12:24:05;;;;;;;8.25;3.47;;;24.60;99.90;;;;;;5011256;28;20470;-68
2021/08/23 12:26:41;;;;;;;7.82;3.70;;;24.60;99.90;;;;;;5012126;28;20168;-68
2021/08/23 12:29:16;;;;;;;7.03;3.20;;;24.30;99.90;;;;;;5013830;28;20486;-68
2021/08/23 12:31:56;;;;;;;5.07;3.10;;;24.30;99.90;;;;;;5016259;28;20056;-68
2021/08/23 12:34:31;;;;;;;5.78;2.67;;;24.60;99.90;;;;;;5016278;28;20033;-69
2021/08/23 12:37:02;;;;;;;6.15;2.88;;;24.70;99.90;;;;;;5036417;28;20120;-68
2021/08/23 12:39:29;;;;;;;5.47;2.95;;;24.50;99.90;;;;;;5034247;28;20486;-68
2021/08/23 12:41:59;;;;;;;5.60;3.50;;;24.50;99.90;;;;;;5051042;28;20034;-68
2021/08/23 12:44:25;;;;;;;6.80;3.37;;;25.10;99.90;;;;;;5035771;28;20084;-68
2021/08/23 12:46:51;;;;;;;5.55;2.28;;;25.30;99.90;;;;;;5035680;28;20283;-69
2021/08/23 12:49:18;;;;;;;3.85;2.50;;;26.10;99.50;;;;;;5050972;28;20040;-68
2021/08/23 12:51:46;;;;;;;5.47;2.90;;;26.10;98.30;;;;;;5035386;28;20037;-68